sensor_id;sensor_type;location;lat;lon;timestamp;pressure;altitude;pressure_sealevel;temperature;humidity
75945;BME280;64628;50.104;14.614;2023-06-10T00:00:51;98395.54;;;19.50;49.48
75945;BME280;64628;50.104;14.614;2023-06-10T00:17:44;98399.02;;;19.37;49.14
75945;BME280;64628;50.104;14.614;2023-06-10T00:41:50;98398.58;;;18.27;49.19
75945;BME280;64628;50.104;14.614;2023-06-10T00:56:28;98401.66;;;18.64;49.63
75945;BME280;64628;50.104;14.614;2023-06-10T00:58:50;98401.17;;;18.64;49.57
75945;BME280;64628;50.104;14.614;2023-06-10T01:03:47;98398.14;;;18.74;49.42
75945;BME280;64628;50.104;14.614;2023-06-10T01:06:14;98402.65;;;18.95;49.61
75945;BME280;64628;50.104;14.614;2023-06-10T01:15:53;98409.22;;;18.63;49.99
75945;BME280;64628;50.104;14.614;2023-06-10T01:23:13;98417.61;;;18.54;49.88
75945;BME280;64628;50.104;14.614;2023-06-10T01:30:37;98418.54;;;18.55;49.48
75945;BME280;64628;50.104;14.614;2023-06-10T01:37:42;98426.92;;;18.63;49.18
75945;BME280;64628;50.104;14.614;2023-06-10T01:40:07;98424.61;;;18.61;49.44
75945;BME280;64628;50.104;14.614;2023-06-10T01:49:44;98426.81;;;18.53;49.59
75945;BME280;64628;50.104;14.614;2023-06-10T02:06:58;98441.06;;;18.08;50.04
75945;BME280;64628;50.104;14.614;2023-06-10T02:09:17;98445.00;;;17.92;49.66
75945;BME280;64628;50.104;14.614;2023-06-10T02:40:48;98456.98;;;18.08;49.54
75945;BME280;64628;50.104;14.614;2023-06-10T02:57:52;98455.62;;;17.97;49.44
75945;BME280;64628;50.104;14.614;2023-06-10T03:05:03;98455.38;;;17.60;49.67
75945;BME280;64628;50.104;14.614;2023-06-10T03:09:46;98459.23;;;17.71;49.32
75945;BME280;64628;50.104;14.614;2023-06-10T03:14:42;98453.32;;;17.87;49.41
75945;BME280;64628;50.104;14.614;2023-06-10T03:16:58;98456.88;;;17.83;49.32
75945;BME280;64628;50.104;14.614;2023-06-10T03:19:25;98458.52;;;17.78;49.41
75945;BME280;64628;50.104;14.614;2023-06-10T03:22:10;98461.76;;;17.57;49.50
75945;BME280;64628;50.104;14.614;2023-06-10T03:26:52;98467.24;;;17.79;49.42
75945;BME280;64628;50.104;14.614;2023-06-10T03:34:09;98476.15;;;18.06;48.93
75945;BME280;64628;50.104;14.614;2023-06-10T03:36:28;98477.29;;;17.76;49.08
75945;BME280;64628;50.104;14.614;2023-06-10T03:46:02;98477.84;;;17.79;49.33
75945;BME280;64628;50.104;14.614;2023-06-10T03:53:30;98481.44;;;17.77;49.52
75945;BME280;64628;50.104;14.614;2023-06-10T03:55:56;98479.97;;;17.78;49.57
75945;BME280;64628;50.104;14.614;2023-06-10T03:58:14;98481.27;;;17.79;49.79
75945;BME280;64628;50.104;14.614;2023-06-10T04:08:05;98487.00;;;17.67;49.29
75945;BME280;64628;50.104;14.614;2023-06-10T04:10:28;98486.64;;;17.92;49.26
75945;BME280;64628;50.104;14.614;2023-06-10T04:12:43;98487.86;;;17.70;49.26
75945;BME280;64628;50.104;14.614;2023-06-10T04:15:19;98486.63;;;18.00;49.19
75945;BME280;64628;50.104;14.614;2023-06-10T04:17:45;98491.51;;;17.84;49.16
75945;BME280;64628;50.104;14.614;2023-06-10T04:20:16;98495.44;;;18.17;49.28
75945;BME280;64628;50.104;14.614;2023-06-10T04:22:34;98494.46;;;18.18;49.51
75945;BME280;64628;50.104;14.614;2023-06-10T04:29:47;98492.44;;;18.25;49.56
75945;BME280;64628;50.104;14.614;2023-06-10T04:42:01;98500.76;;;18.72;49.36
75945;BME280;64628;50.104;14.614;2023-06-10T04:44:13;98501.88;;;19.19;49.20
75945;BME280;64628;50.104;14.614;2023-06-10T04:46:46;98503.43;;;19.18;49.26
75945;BME280;64628;50.104;14.614;2023-06-10T04:49:12;98499.68;;;19.43;49.13
75945;BME280;64628;50.104;14.614;2023-06-10T05:03:43;98503.57;;;21.02;48.65
75945;BME280;64628;50.104;14.614;2023-06-10T05:06:14;98506.13;;;20.89;48.21
75945;BME280;64628;50.104;14.614;2023-06-10T05:08:43;98506.39;;;21.01;48.42
75945;BME280;64628;50.104;14.614;2023-06-10T05:13:33;98500.95;;;21.12;48.14
75945;BME280;64628;50.104;14.614;2023-06-10T05:18:11;98502.15;;;21.09;47.88
75945;BME280;64628;50.104;14.614;2023-06-10T05:20:50;98504.52;;;21.18;47.67
75945;BME280;64628;50.104;14.614;2023-06-10T05:28:10;98510.89;;;21.48;47.27
75945;BME280;64628;50.104;14.614;2023-06-10T05:30:19;98518.37;;;21.57;47.04
75945;BME280;64628;50.104;14.614;2023-06-10T05:32:50;98522.14;;;21.41;46.08
75945;BME280;64628;50.104;14.614;2023-06-10T05:35:09;98525.49;;;21.37;46.43
75945;BME280;64628;50.104;14.614;2023-06-10T05:40:01;98524.62;;;21.73;45.88
75945;BME280;64628;50.104;14.614;2023-06-10T05:42:39;98522.55;;;22.02;45.22
75945;BME280;64628;50.104;14.614;2023-06-10T05:44:53;98522.01;;;22.35;45.16
75945;BME280;64628;50.104;14.614;2023-06-10T05:49:49;98519.12;;;22.59;44.67
75945;BME280;64628;50.104;14.614;2023-06-10T05:52:04;98523.38;;;23.07;44.24
75945;BME280;64628;50.104;14.614;2023-06-10T05:54:27;98528.65;;;23.03;44.50
75945;BME280;64628;50.104;14.614;2023-06-10T05:56:53;98528.37;;;22.93;44.79
75945;BME280;64628;50.104;14.614;2023-06-10T05:59:18;98526.00;;;22.81;43.89
75945;BME280;64628;50.104;14.614;2023-06-10T06:01:44;98526.60;;;22.97;43.84
75945;BME280;64628;50.104;14.614;2023-06-10T06:04:11;98528.98;;;23.13;43.34
75945;BME280;64628;50.104;14.614;2023-06-10T06:06:35;98533.09;;;23.17;43.59
75945;BME280;64628;50.104;14.614;2023-06-10T06:09:00;98526.40;;;23.43;43.61
75945;BME280;64628;50.104;14.614;2023-06-10T06:11:25;98528.06;;;23.78;42.89
75945;BME280;64628;50.104;14.614;2023-06-10T06:13:56;98526.70;;;23.81;42.44
75945;BME280;64628;50.104;14.614;2023-06-10T06:16:16;98523.97;;;24.04;41.80
75945;BME280;64628;50.104;14.614;2023-06-10T06:18:40;98526.02;;;24.22;41.76
75945;BME280;64628;50.104;14.614;2023-06-10T06:21:06;98525.80;;;24.36;40.88
75945;BME280;64628;50.104;14.614;2023-06-10T06:23:31;98525.70;;;24.40;40.35
75945;BME280;64628;50.104;14.614;2023-06-10T06:25:57;98531.61;;;24.31;40.69
75945;BME280;64628;50.104;14.614;2023-06-10T06:28:22;98530.31;;;24.87;40.49
75945;BME280;64628;50.104;14.614;2023-06-10T06:30:48;98531.91;;;24.48;39.43
75945;BME280;64628;50.104;14.614;2023-06-10T06:33:13;98533.86;;;24.49;38.61
75945;BME280;64628;50.104;14.614;2023-06-10T06:35:39;98536.08;;;24.89;39.21
75945;BME280;64628;50.104;14.614;2023-06-10T06:38:05;98542.99;;;25.26;39.19
75945;BME280;64628;50.104;14.614;2023-06-10T06:40:30;98547.21;;;25.31;38.32
75945;BME280;64628;50.104;14.614;2023-06-10T06:42:55;98544.92;;;25.60;37.77
75945;BME280;64628;50.104;14.614;2023-06-10T06:45:22;98548.58;;;25.88;37.65
75945;BME280;64628;50.104;14.614;2023-06-10T06:47:46;98547.40;;;25.87;37.94
75945;BME280;64628;50.104;14.614;2023-06-10T06:50:11;98547.90;;;26.23;37.15
75945;BME280;64628;50.104;14.614;2023-06-10T06:52:38;98549.71;;;25.99;37.20
75945;BME280;64628;50.104;14.614;2023-06-10T06:55:04;98552.59;;;26.02;36.78
75945;BME280;64628;50.104;14.614;2023-06-10T06:57:29;98553.77;;;25.94;37.24
75945;BME280;64628;50.104;14.614;2023-06-10T06:59:54;98555.25;;;25.30;36.74
75945;BME280;64628;50.104;14.614;2023-06-10T07:02:20;98558.01;;;25.77;36.65
75945;BME280;64628;50.104;14.614;2023-06-10T07:04:45;98560.30;;;26.34;37.21
75945;BME280;64628;50.104;14.614;2023-06-10T07:07:11;98564.88;;;26.00;37.53
75945;BME280;64628;50.104;14.614;2023-06-10T07:09:37;98568.05;;;27.04;35.73
75945;BME280;64628;50.104;14.614;2023-06-10T07:12:03;98567.33;;;28.57;33.69
75945;BME280;64628;50.104;14.614;2023-06-10T07:14:27;98565.91;;;29.48;32.80
75945;BME280;64628;50.104;14.614;2023-06-10T07:16:53;98566.69;;;31.45;30.52
75945;BME280;64628;50.104;14.614;2023-06-10T07:19:18;98569.89;;;31.12;28.99
75945;BME280;64628;50.104;14.614;2023-06-10T07:21:53;98569.31;;;29.66;29.89
75945;BME280;64628;50.104;14.614;2023-06-10T07:24:18;98567.69;;;28.86;31.60
75945;BME280;64628;50.104;14.614;2023-06-10T07:26:37;98572.67;;;27.98;33.40
75945;BME280;64628;50.104;14.614;2023-06-10T07:33:56;98575.64;;;26.45;36.29
75945;BME280;64628;50.104;14.614;2023-06-10T07:38:57;98580.26;;;25.99;37.01
75945;BME280;64628;50.104;14.614;2023-06-10T07:45:59;98585.72;;;25.83;36.71
75945;BME280;64628;50.104;14.614;2023-06-10T07:48:24;98587.17;;;25.82;37.84
75945;BME280;64628;50.104;14.614;2023-06-10T07:50:52;98586.55;;;25.55;37.29
75945;BME280;64628;50.104;14.614;2023-06-10T07:53:16;98589.71;;;25.45;38.19
75945;BME280;64628;50.104;14.614;2023-06-10T07:55:42;98590.46;;;25.47;39.02
75945;BME280;64628;50.104;14.614;2023-06-10T07:58:07;98591.28;;;25.50;39.05
75945;BME280;64628;50.104;14.614;2023-06-10T08:00:32;98590.89;;;25.49;38.60
75945;BME280;64628;50.104;14.614;2023-06-10T08:02:58;98592.89;;;25.16;38.88
75945;BME280;64628;50.104;14.614;2023-06-10T08:05:24;98596.83;;;25.31;38.75
75945;BME280;64628;50.104;14.614;2023-06-10T08:07:50;98596.12;;;25.17;38.39
75945;BME280;64628;50.104;14.614;2023-06-10T08:10:15;98599.02;;;24.89;38.91
75945;BME280;64628;50.104;14.614;2023-06-10T08:12:41;98602.26;;;25.02;39.56
75945;BME280;64628;50.104;14.614;2023-06-10T08:15:11;98604.81;;;24.86;39.40
75945;BME280;64628;50.104;14.614;2023-06-10T08:17:32;98602.09;;;24.69;39.62
75945;BME280;64628;50.104;14.614;2023-06-10T08:19:57;98606.21;;;24.77;39.37
75945;BME280;64628;50.104;14.614;2023-06-10T08:22:23;98610.74;;;24.43;39.37
75945;BME280;64628;50.104;14.614;2023-06-10T08:24:48;98611.37;;;24.58;39.25
75945;BME280;64628;50.104;14.614;2023-06-10T08:27:14;98613.86;;;24.31;40.13
75945;BME280;64628;50.104;14.614;2023-06-10T08:29:40;98611.40;;;24.01;40.36
75945;BME280;64628;50.104;14.614;2023-06-10T08:32:05;98609.50;;;24.08;39.82
75945;BME280;64628;50.104;14.614;2023-06-10T08:34:33;98609.36;;;24.21;40.46
75945;BME280;64628;50.104;14.614;2023-06-10T08:37:01;98610.76;;;23.84;41.09
75945;BME280;64628;50.104;14.614;2023-06-10T08:39:37;98613.72;;;24.19;41.17
75945;BME280;64628;50.104;14.614;2023-06-10T08:41:55;98614.41;;;24.29;40.88
75945;BME280;64628;50.104;14.614;2023-06-10T08:46:42;98614.44;;;23.92;41.30
75945;BME280;64628;50.104;14.614;2023-06-10T08:54:05;98608.52;;;24.28;40.98
75945;BME280;64628;50.104;14.614;2023-06-10T08:56:20;98610.50;;;24.72;40.68
75945;BME280;64628;50.104;14.614;2023-06-10T08:58:45;98609.44;;;25.07;39.87
75945;BME280;64628;50.104;14.614;2023-06-10T09:01:22;98610.09;;;24.56;40.13
75945;BME280;64628;50.104;14.614;2023-06-10T09:06:04;98612.39;;;24.90;39.79
75945;BME280;64628;50.104;14.614;2023-06-10T09:08:28;98611.92;;;25.00;39.19
75945;BME280;64628;50.104;14.614;2023-06-10T09:10:58;98617.66;;;25.00;39.30
75945;BME280;64628;50.104;14.614;2023-06-10T09:13:18;98618.18;;;25.03;39.97
75945;BME280;64628;50.104;14.614;2023-06-10T09:15:52;98619.22;;;25.11;39.98
75945;BME280;64628;50.104;14.614;2023-06-10T09:18:14;98622.37;;;25.17;39.97
75945;BME280;64628;50.104;14.614;2023-06-10T09:20:42;98622.48;;;25.15;39.49
75945;BME280;64628;50.104;14.614;2023-06-10T09:25:44;98619.41;;;25.11;39.67
75945;BME280;64628;50.104;14.614;2023-06-10T09:28:00;98620.18;;;24.81;39.54
75945;BME280;64628;50.104;14.614;2023-06-10T09:35:24;98620.01;;;24.77;40.18
75945;BME280;64628;50.104;14.614;2023-06-10T09:37:48;98624.27;;;24.88;40.29
75945;BME280;64628;50.104;14.614;2023-06-10T09:40:08;98623.52;;;24.92;39.69
75945;BME280;64628;50.104;14.614;2023-06-10T09:42:34;98629.94;;;24.75;40.34
75945;BME280;64628;50.104;14.614;2023-06-10T09:45:11;98628.14;;;25.21;41.07
75945;BME280;64628;50.104;14.614;2023-06-10T09:49:51;98628.04;;;25.82;41.34
75945;BME280;64628;50.104;14.614;2023-06-10T09:52:09;98625.76;;;25.69;40.34
75945;BME280;64628;50.104;14.614;2023-06-10T09:56:58;98624.15;;;26.20;39.30
75945;BME280;64628;50.104;14.614;2023-06-10T09:59:36;98624.81;;;26.38;39.29
75945;BME280;64628;50.104;14.614;2023-06-10T10:04:23;98628.71;;;26.63;38.15
75945;BME280;64628;50.104;14.614;2023-06-10T10:06:42;98624.54;;;26.75;36.28
75945;BME280;64628;50.104;14.614;2023-06-10T10:09:05;98617.10;;;26.54;36.33
75945;BME280;64628;50.104;14.614;2023-06-10T10:11:33;98616.37;;;27.72;36.33
75945;BME280;64628;50.104;14.614;2023-06-10T10:14:01;98616.02;;;28.08;35.21
75945;BME280;64628;50.104;14.614;2023-06-10T10:16:23;98610.55;;;28.86;34.00
75945;BME280;64628;50.104;14.614;2023-06-10T10:19:10;98608.76;;;29.15;34.41
75945;BME280;64628;50.104;14.614;2023-06-10T10:21:21;98605.26;;;30.05;32.23
75945;BME280;64628;50.104;14.614;2023-06-10T10:23:53;98605.35;;;30.39;32.06
75945;BME280;64628;50.104;14.614;2023-06-10T10:26:05;98603.28;;;30.56;30.34
75945;BME280;64628;50.104;14.614;2023-06-10T10:28:34;98601.23;;;30.78;30.71
75945;BME280;64628;50.104;14.614;2023-06-10T10:30:58;98601.84;;;31.04;30.46
75945;BME280;64628;50.104;14.614;2023-06-10T10:33:22;98600.83;;;31.14;28.93
75945;BME280;64628;50.104;14.614;2023-06-10T10:35:48;98599.32;;;31.17;29.60
75945;BME280;64628;50.104;14.614;2023-06-10T10:38:11;98604.94;;;31.49;30.04
75945;BME280;64628;50.104;14.614;2023-06-10T10:40:46;98599.75;;;31.67;27.83
75945;BME280;64628;50.104;14.614;2023-06-10T10:43:03;98598.18;;;31.61;29.01
75945;BME280;64628;50.104;14.614;2023-06-10T10:45:30;98595.32;;;31.42;28.93
75945;BME280;64628;50.104;14.614;2023-06-10T10:50:22;98593.69;;;32.29;29.29
75945;BME280;64628;50.104;14.614;2023-06-10T10:52:53;98589.59;;;31.94;27.77
75945;BME280;64628;50.104;14.614;2023-06-10T10:57:32;98580.99;;;32.75;27.87
75945;BME280;64628;50.104;14.614;2023-06-10T11:00:09;98578.12;;;32.91;28.34
75945;BME280;64628;50.104;14.614;2023-06-10T11:02:41;98583.31;;;32.25;27.39
75945;BME280;64628;50.104;14.614;2023-06-10T11:04:50;98588.82;;;31.77;26.66
75945;BME280;64628;50.104;14.614;2023-06-10T11:07:20;98592.17;;;31.47;28.20
75945;BME280;64628;50.104;14.614;2023-06-10T11:12:10;98589.79;;;30.08;29.28
75945;BME280;64628;50.104;14.614;2023-06-10T11:14:33;98588.69;;;29.62;31.07
75945;BME280;64628;50.104;14.614;2023-06-10T11:16:59;98584.50;;;29.54;33.23
75945;BME280;64628;50.104;14.614;2023-06-10T11:22:00;98582.14;;;28.16;34.90
75945;BME280;64628;50.104;14.614;2023-06-10T11:26:45;98582.94;;;28.37;36.45
75945;BME280;64628;50.104;14.614;2023-06-10T11:29:11;98589.18;;;27.68;35.70
75945;BME280;64628;50.104;14.614;2023-06-10T11:31:30;98588.55;;;27.58;35.23
75945;BME280;64628;50.104;14.614;2023-06-10T11:34:15;98583.10;;;27.81;35.22
75945;BME280;64628;50.104;14.614;2023-06-10T11:36:36;98579.30;;;27.58;35.23
75945;BME280;64628;50.104;14.614;2023-06-10T11:38:45;98575.22;;;27.81;34.88
75945;BME280;64628;50.104;14.614;2023-06-10T11:41:19;98569.01;;;27.94;34.03
75945;BME280;64628;50.104;14.614;2023-06-10T11:46:20;98563.85;;;28.26;34.40
75945;BME280;64628;50.104;14.614;2023-06-10T11:50:56;98555.04;;;29.53;33.13
75945;BME280;64628;50.104;14.614;2023-06-10T11:58:16;98545.89;;;30.40;29.96
75945;BME280;64628;50.104;14.614;2023-06-10T12:00:45;98544.65;;;31.07;30.95
75945;BME280;64628;50.104;14.614;2023-06-10T12:03:02;98540.02;;;31.09;28.24
75945;BME280;64628;50.104;14.614;2023-06-10T12:05:30;98535.96;;;31.17;28.91
75945;BME280;64628;50.104;14.614;2023-06-10T12:08:09;98539.02;;;31.29;30.11
75945;BME280;64628;50.104;14.614;2023-06-10T12:10:20;98541.76;;;31.38;28.84
75945;BME280;64628;50.104;14.614;2023-06-10T12:12:45;98537.69;;;31.43;29.70
75945;BME280;64628;50.104;14.614;2023-06-10T12:15:05;98538.03;;;31.74;27.93
75945;BME280;64628;50.104;14.614;2023-06-10T12:17:39;98535.95;;;32.20;28.46
75945;BME280;64628;50.104;14.614;2023-06-10T12:20:24;98529.83;;;31.93;27.89
75945;BME280;64628;50.104;14.614;2023-06-10T12:22:24;98528.79;;;32.30;27.53
75945;BME280;64628;50.104;14.614;2023-06-10T12:27:18;98526.13;;;32.09;26.47
75945;BME280;64628;50.104;14.614;2023-06-10T12:29:50;98530.69;;;32.44;26.89
75945;BME280;64628;50.104;14.614;2023-06-10T12:32:13;98526.90;;;32.25;26.68
75945;BME280;64628;50.104;14.614;2023-06-10T12:36:59;98522.58;;;31.74;27.03
75945;BME280;64628;50.104;14.614;2023-06-10T12:39:20;98526.45;;;31.77;27.32
75945;BME280;64628;50.104;14.614;2023-06-10T12:41:54;98515.04;;;32.12;29.46
75945;BME280;64628;50.104;14.614;2023-06-10T12:44:14;98512.70;;;31.64;27.44
75945;BME280;64628;50.104;14.614;2023-06-10T12:46:38;98512.19;;;31.88;27.98
75945;BME280;64628;50.104;14.614;2023-06-10T12:49:04;98513.68;;;31.41;28.11
75945;BME280;64628;50.104;14.614;2023-06-10T12:51:31;98507.93;;;30.83;28.67
75945;BME280;64628;50.104;14.614;2023-06-10T12:53:52;98500.29;;;30.56;28.15
75945;BME280;64628;50.104;14.614;2023-06-10T12:56:19;98494.72;;;30.70;29.41
75945;BME280;64628;50.104;14.614;2023-06-10T12:58:42;98494.71;;;29.91;28.30
75945;BME280;64628;50.104;14.614;2023-06-10T13:03:36;98495.35;;;30.52;28.59
75945;BME280;64628;50.104;14.614;2023-06-10T13:06:01;98494.27;;;30.87;28.04
75945;BME280;64628;50.104;14.614;2023-06-10T13:08:28;98490.41;;;30.73;27.39
75945;BME280;64628;50.104;14.614;2023-06-10T13:10:54;98491.65;;;31.11;27.49
75945;BME280;64628;50.104;14.614;2023-06-10T13:13:15;98496.10;;;31.17;27.31
75945;BME280;64628;50.104;14.614;2023-06-10T13:15:46;98497.98;;;31.63;26.90
75945;BME280;64628;50.104;14.614;2023-06-10T13:18:11;98498.17;;;31.75;26.51
75945;BME280;64628;50.104;14.614;2023-06-10T13:23:00;98495.03;;;31.67;27.24
75945;BME280;64628;50.104;14.614;2023-06-10T13:25:27;98503.43;;;31.33;27.41
75945;BME280;64628;50.104;14.614;2023-06-10T13:27:58;98501.57;;;31.04;28.08
75945;BME280;64628;50.104;14.614;2023-06-10T13:30:17;98499.15;;;31.06;28.05
75945;BME280;64628;50.104;14.614;2023-06-10T13:32:54;98493.18;;;30.17;29.14
75945;BME280;64628;50.104;14.614;2023-06-10T13:35:05;98495.63;;;30.26;29.05
75945;BME280;64628;50.104;14.614;2023-06-10T13:37:34;98493.68;;;30.00;29.00
75945;BME280;64628;50.104;14.614;2023-06-10T13:39:59;98489.61;;;30.03;29.00
75945;BME280;64628;50.104;14.614;2023-06-10T13:44:46;98488.52;;;30.10;28.10
75945;BME280;64628;50.104;14.614;2023-06-10T13:47:15;98493.12;;;30.41;28.58
75945;BME280;64628;50.104;14.614;2023-06-10T13:49:47;98492.27;;;30.64;27.60
75945;BME280;64628;50.104;14.614;2023-06-10T13:52:02;98493.38;;;30.53;27.26
75945;BME280;64628;50.104;14.614;2023-06-10T13:54:27;98497.49;;;30.91;28.08
75945;BME280;64628;50.104;14.614;2023-06-10T13:56:52;98494.58;;;31.20;27.77
75945;BME280;64628;50.104;14.614;2023-06-10T13:59:24;98497.25;;;31.34;26.91
75945;BME280;64628;50.104;14.614;2023-06-10T14:01:44;98493.74;;;31.57;26.29
75945;BME280;64628;50.104;14.614;2023-06-10T14:04:10;98489.38;;;31.70;25.60
75945;BME280;64628;50.104;14.614;2023-06-10T14:06:43;98490.42;;;31.92;25.34
75945;BME280;64628;50.104;14.614;2023-06-10T14:09:00;98490.00;;;31.91;24.05
75945;BME280;64628;50.104;14.614;2023-06-10T14:11:29;98487.61;;;32.22;23.90
75945;BME280;64628;50.104;14.614;2023-06-10T14:13:55;98487.92;;;32.19;24.59
75945;BME280;64628;50.104;14.614;2023-06-10T14:16:17;98490.28;;;32.50;23.64
75945;BME280;64628;50.104;14.614;2023-06-10T14:18:44;98488.18;;;32.37;24.03
75945;BME280;64628;50.104;14.614;2023-06-10T14:21:13;98493.63;;;32.41;24.00
75945;BME280;64628;50.104;14.614;2023-06-10T14:23:37;98494.45;;;31.98;23.76
75945;BME280;64628;50.104;14.614;2023-06-10T14:25:58;98500.46;;;32.28;23.99
75945;BME280;64628;50.104;14.614;2023-06-10T14:28:25;98499.39;;;32.50;24.52
75945;BME280;64628;50.104;14.614;2023-06-10T14:30:52;98499.17;;;32.17;23.43
75945;BME280;64628;50.104;14.614;2023-06-10T14:33:16;98500.98;;;31.81;23.14
75945;BME280;64628;50.104;14.614;2023-06-10T14:35:41;98496.76;;;32.20;23.06
75945;BME280;64628;50.104;14.614;2023-06-10T14:38:18;98499.68;;;31.91;22.40
75945;BME280;64628;50.104;14.614;2023-06-10T14:40:39;98496.99;;;32.08;22.16
75945;BME280;64628;50.104;14.614;2023-06-10T14:43:03;98495.16;;;31.82;22.98
75945;BME280;64628;50.104;14.614;2023-06-10T14:45:22;98495.96;;;31.90;21.89
75945;BME280;64628;50.104;14.614;2023-06-10T14:47:52;98500.73;;;31.88;22.63
75945;BME280;64628;50.104;14.614;2023-06-10T14:50:13;98493.90;;;32.16;22.50
75945;BME280;64628;50.104;14.614;2023-06-10T14:52:43;98493.21;;;32.17;20.64
75945;BME280;64628;50.104;14.614;2023-06-10T14:55:11;98491.01;;;31.70;20.88
75945;BME280;64628;50.104;14.614;2023-06-10T14:57:35;98487.45;;;31.76;22.20
75945;BME280;64628;50.104;14.614;2023-06-10T14:59:55;98488.92;;;32.13;21.76
75945;BME280;64628;50.104;14.614;2023-06-10T15:02:22;98489.71;;;31.87;21.38
75945;BME280;64628;50.104;14.614;2023-06-10T15:04:55;98493.51;;;31.91;21.74
75945;BME280;64628;50.104;14.614;2023-06-10T15:09:40;98493.90;;;31.81;21.76
75945;BME280;64628;50.104;14.614;2023-06-10T15:12:03;98491.97;;;31.98;21.96
75945;BME280;64628;50.104;14.614;2023-06-10T15:14:26;98495.16;;;31.95;22.35
75945;BME280;64628;50.104;14.614;2023-06-10T15:16:52;98495.59;;;32.19;22.67
75945;BME280;64628;50.104;14.614;2023-06-10T15:19:22;98498.31;;;32.23;22.43
75945;BME280;64628;50.104;14.614;2023-06-10T15:21:43;98494.35;;;31.75;22.57
75945;BME280;64628;50.104;14.614;2023-06-10T15:24:13;98490.90;;;32.15;22.18
75945;BME280;64628;50.104;14.614;2023-06-10T15:26:36;98490.77;;;31.64;22.83
75945;BME280;64628;50.104;14.614;2023-06-10T15:29:07;98492.74;;;31.59;22.91
75945;BME280;64628;50.104;14.614;2023-06-10T15:31:32;98493.41;;;31.70;23.15
75945;BME280;64628;50.104;14.614;2023-06-10T15:33:56;98498.18;;;31.22;24.18
75945;BME280;64628;50.104;14.614;2023-06-10T15:36:15;98509.70;;;30.84;24.07
75945;BME280;64628;50.104;14.614;2023-06-10T15:38:42;98506.78;;;30.79;24.14
75945;BME280;64628;50.104;14.614;2023-06-10T15:41:09;98502.87;;;30.28;23.59
75945;BME280;64628;50.104;14.614;2023-06-10T15:43:33;98503.18;;;29.74;22.53
75945;BME280;64628;50.104;14.614;2023-06-10T15:46:09;98509.01;;;30.22;22.87
75945;BME280;64628;50.104;14.614;2023-06-10T15:48:27;98509.45;;;29.69;22.47
75945;BME280;64628;50.104;14.614;2023-06-10T15:50:49;98506.95;;;29.65;23.13
75945;BME280;64628;50.104;14.614;2023-06-10T15:53:14;98506.19;;;29.22;23.73
75945;BME280;64628;50.104;14.614;2023-06-10T15:55:45;98501.42;;;29.53;23.60
75945;BME280;64628;50.104;14.614;2023-06-10T15:58:04;98501.16;;;29.26;23.97
75945;BME280;64628;50.104;14.614;2023-06-10T16:00:31;98502.21;;;29.42;23.95
75945;BME280;64628;50.104;14.614;2023-06-10T16:02:56;98501.89;;;29.04;24.03
75945;BME280;64628;50.104;14.614;2023-06-10T16:05:21;98502.86;;;28.85;24.35
75945;BME280;64628;50.104;14.614;2023-06-10T16:07:51;98505.26;;;28.89;24.88
75945;BME280;64628;50.104;14.614;2023-06-10T16:10:12;98505.48;;;29.08;24.87
75945;BME280;64628;50.104;14.614;2023-06-10T16:12:37;98505.77;;;28.57;25.19
75945;BME280;64628;50.104;14.614;2023-06-10T16:15:02;98506.04;;;28.63;25.34
75945;BME280;64628;50.104;14.614;2023-06-10T16:17:28;98507.57;;;28.44;25.57
75945;BME280;64628;50.104;14.614;2023-06-10T16:19:59;98508.99;;;28.25;26.34
75945;BME280;64628;50.104;14.614;2023-06-10T16:22:18;98510.62;;;28.10;26.50
75945;BME280;64628;50.104;14.614;2023-06-10T16:24:47;98515.72;;;28.25;26.64
75945;BME280;64628;50.104;14.614;2023-06-10T16:27:09;98517.96;;;27.84;26.63
75945;BME280;64628;50.104;14.614;2023-06-10T16:29:35;98519.12;;;27.80;26.53
75945;BME280;64628;50.104;14.614;2023-06-10T16:32:01;98519.89;;;27.81;27.13
75945;BME280;64628;50.104;14.614;2023-06-10T16:34:26;98520.16;;;27.95;27.07
75945;BME280;64628;50.104;14.614;2023-06-10T16:36:51;98523.87;;;28.26;27.08
75945;BME280;64628;50.104;14.614;2023-06-10T16:39:17;98526.58;;;28.28;27.20
75945;BME280;64628;50.104;14.614;2023-06-10T16:41:43;98523.91;;;28.14;27.33
75945;BME280;64628;50.104;14.614;2023-06-10T16:44:08;98521.48;;;28.19;27.15
75945;BME280;64628;50.104;14.614;2023-06-10T16:46:33;98522.49;;;28.22;27.56
75945;BME280;64628;50.104;14.614;2023-06-10T16:49:00;98525.13;;;28.34;27.64
75945;BME280;64628;50.104;14.614;2023-06-10T16:51:26;98524.89;;;28.45;27.38
75945;BME280;64628;50.104;14.614;2023-06-10T16:53:50;98531.90;;;28.50;26.60
75945;BME280;64628;50.104;14.614;2023-06-10T16:56:17;98531.45;;;28.33;26.70
75945;BME280;64628;50.104;14.614;2023-06-10T16:58:45;98533.92;;;28.25;26.85
75945;BME280;64628;50.104;14.614;2023-06-10T17:01:07;98534.03;;;27.99;26.91
75945;BME280;64628;50.104;14.614;2023-06-10T17:03:32;98533.48;;;28.23;27.63
75945;BME280;64628;50.104;14.614;2023-06-10T17:05:57;98534.48;;;27.95;27.45
75945;BME280;64628;50.104;14.614;2023-06-10T17:08:30;98541.10;;;28.34;27.31
75945;BME280;64628;50.104;14.614;2023-06-10T17:10:57;98547.78;;;28.23;27.17
75945;BME280;64628;50.104;14.614;2023-06-10T17:13:13;98547.47;;;27.70;27.67
75945;BME280;64628;50.104;14.614;2023-06-10T17:15:38;98548.62;;;27.85;27.84
75945;BME280;64628;50.104;14.614;2023-06-10T17:18:10;98547.24;;;27.48;27.81
75945;BME280;64628;50.104;14.614;2023-06-10T17:20:28;98549.84;;;27.81;27.98
75945;BME280;64628;50.104;14.614;2023-06-10T17:22:55;98552.33;;;27.66;28.00
75945;BME280;64628;50.104;14.614;2023-06-10T17:25:19;98554.95;;;27.54;28.01
75945;BME280;64628;50.104;14.614;2023-06-10T17:27:46;98558.54;;;27.61;27.92